Clorinda, Argentina
Current Conditions -  °F | °C
As of 3:00 AM on Wednesday 28 Jan 2015 (Local Time) from SGAS Reporting Station
Broken Clouds Broken Clouds  
Wind Chill: 25°   Ceiling: 8000
Heat Index: 26°   Visibility: 6mi
Dew Point: 23°   Wind: 7mph
Humidity: 89%   Direction: 50°NE
Pressure: 29.77"   Gusts: NA
Location:  25.29°S, 57.72°W
Report Text: SGAS 280600Z 05006KT 020V080 9999 SCT030 BKN080 25/23 Q1008
Loading
Personal Weather Stations






























Interactive Weather Map New forecast layout! Learn more

10-Day Weather Forecast

Advertisements
Track Severe Weather on mobile